createdAt,value
2019-05-15T00:00:15.254Z,67.80
2019-05-15T00:01:19.227Z,67.70
2019-05-15T00:02:22.338Z,67.40
2019-05-15T00:03:25.319Z,67.90
2019-05-15T00:04:28.329Z,68.10
2019-05-15T00:05:31.276Z,68.10
2019-05-15T00:06:34.225Z,67.70
2019-05-15T00:07:39.252Z,67.50
2019-05-15T00:08:41.976Z,67.70
2019-05-15T00:09:44.926Z,67.90
2019-05-15T00:10:48.405Z,67.90
2019-05-15T00:11:51.588Z,67.70
2019-05-15T00:12:54.513Z,67.50
2019-05-15T00:13:58.953Z,67.20
2019-05-15T00:15:02.066Z,67.20
2019-05-15T00:16:05.133Z,67.10
2019-05-15T00:17:08.283Z,67.20
2019-05-15T00:18:11.252Z,67.40
2019-05-15T00:19:14.178Z,67.10
2019-05-15T00:20:17.127Z,66.60
2019-05-15T00:21:20.097Z,66.60
2019-05-15T00:22:22.997Z,66.70
2019-05-15T00:23:26.077Z,66.80
2019-05-15T00:24:28.971Z,66.90
2019-05-15T00:25:31.909Z,66.80
2019-05-15T00:26:34.822Z,67.00
2019-05-15T00:27:38.631Z,66.90
2019-05-15T00:28:41.844Z,66.80
2019-05-15T00:29:44.764Z,66.80
2019-05-15T00:30:48.115Z,66.80
2019-05-15T00:31:51.105Z,66.90
2019-05-15T00:32:54.065Z,66.80
2019-05-15T00:33:58.826Z,66.70
2019-05-15T00:35:02.124Z,66.80
2019-05-15T00:36:05.155Z,67.10
2019-05-15T00:37:09.029Z,67.00
2019-05-15T00:38:12.058Z,66.90
2019-05-15T00:39:14.962Z,67.20
2019-05-15T00:40:18.598Z,67.50
2019-05-15T00:41:21.609Z,67.40
2019-05-15T00:42:24.519Z,67.50
2019-05-15T00:43:29.171Z,67.50
2019-05-15T00:44:32.430Z,67.80
2019-05-15T00:45:35.349Z,67.90
2019-05-15T00:46:38.622Z,68.00
2019-05-15T00:47:41.520Z,68.10
2019-05-15T00:48:44.439Z,67.90
2019-05-15T00:49:48.800Z,68.30
2019-05-15T00:50:51.930Z,68.50
2019-05-15T00:51:54.866Z,68.80
2019-05-15T00:52:59.003Z,68.70
2019-05-15T00:54:01.873Z,68.50
2019-05-15T00:55:08.534Z,68.10
2019-05-15T00:56:11.179Z,67.50
2019-05-15T00:57:14.109Z,67.20
2019-05-15T00:58:19.657Z,67.10
2019-05-15T00:59:26.349Z,67.00
2019-05-15T01:00:43.617Z,67.00
2019-05-15T01:01:48.717Z,67.00
2019-05-15T01:02:52.216Z,67.30
2019-05-15T01:03:55.110Z,67.50
2019-05-15T01:04:58.544Z,67.70
2019-05-15T01:06:01.615Z,67.70
2019-05-15T01:07:04.517Z,67.70
2019-05-15T01:08:08.194Z,67.90
2019-05-15T01:09:12.291Z,68.00
2019-05-15T01:10:15.384Z,67.40
2019-05-15T01:11:19.217Z,67.00
2019-05-15T01:12:22.238Z,67.00
2019-05-15T01:13:25.134Z,67.10
2019-05-15T01:14:28.211Z,67.20
2019-05-15T01:15:31.347Z,67.30
2019-05-15T01:16:34.204Z,67.10
2019-05-15T01:17:39.117Z,66.80
2019-05-15T01:18:41.871Z,66.80
2019-05-15T01:19:44.876Z,66.90
2019-05-15T01:20:49.404Z,66.60
2019-05-15T01:21:52.497Z,66.60
2019-05-15T01:22:55.421Z,66.90
2019-05-15T01:23:58.959Z,67.20
2019-05-15T01:25:01.941Z,67.20
2019-05-15T01:26:04.841Z,66.40
2019-05-15T01:27:09.138Z,66.20
2019-05-15T01:28:12.029Z,66.30
2019-05-15T01:29:14.950Z,67.00
2019-05-15T01:30:18.453Z,67.30
2019-05-15T01:31:21.383Z,67.10
2019-05-15T01:32:24.358Z,66.50
2019-05-15T01:33:28.311Z,66.30
2019-05-15T01:34:31.293Z,66.20
2019-05-15T01:35:34.195Z,65.70
2019-05-15T01:36:38.303Z,65.10
2019-05-15T01:37:41.273Z,65.30
2019-05-15T01:38:44.234Z,65.90
2019-05-15T01:39:48.551Z,66.20
2019-05-15T01:40:51.580Z,66.00
2019-05-15T01:41:54.581Z,65.90
2019-05-15T01:42:58.271Z,65.70
2019-05-15T01:44:01.371Z,65.40
2019-05-15T01:45:05.026Z,65.50
2019-05-15T01:46:08.470Z,65.30
2019-05-15T01:47:11.532Z,65.60
2019-05-15T01:48:14.445Z,65.70
2019-05-15T01:49:18.682Z,65.80
2019-05-15T01:50:21.664Z,65.60
2019-05-15T01:51:24.569Z,65.80
2019-05-15T01:52:27.987Z,65.90
2019-05-15T01:53:30.961Z,66.20
2019-05-15T01:54:33.858Z,66.60
2019-05-15T01:55:39.101Z,66.50
2019-05-15T01:56:41.713Z,66.40
2019-05-15T01:57:44.627Z,66.50
2019-05-15T01:58:48.685Z,66.30
2019-05-15T01:59:57.264Z,66.30
2019-05-15T02:00:58.791Z,66.50
2019-05-15T02:02:01.133Z,66.60
2019-05-15T02:03:04.055Z,66.60
2019-05-15T02:04:08.352Z,66.70
2019-05-15T02:05:11.714Z,66.80
2019-05-15T02:06:14.674Z,66.80
2019-05-15T02:07:18.721Z,67.10
2019-05-15T02:08:21.804Z,67.30
2019-05-15T02:09:24.793Z,67.10
2019-05-15T02:10:29.212Z,66.70
2019-05-15T02:11:32.245Z,66.50
2019-05-15T02:12:35.168Z,66.10
2019-05-15T02:13:38.957Z,66.00
2019-05-15T02:14:42.166Z,65.90
2019-05-15T02:15:45.074Z,65.80
2019-05-15T02:16:48.455Z,65.80
2019-05-15T02:17:51.447Z,65.80
2019-05-15T02:18:54.355Z,66.00
2019-05-15T02:19:58.758Z,65.80
2019-05-15T02:21:01.709Z,65.60
2019-05-15T02:22:04.625Z,65.70
2019-05-15T02:23:11.569Z,65.80
2019-05-15T02:24:13.021Z,66.20
2019-05-15T02:25:18.417Z,66.50
2019-05-15T02:26:20.920Z,66.40
2019-05-15T02:27:23.877Z,66.30
2019-05-15T02:28:28.803Z,65.90
2019-05-15T02:29:31.544Z,65.80
2019-05-15T02:30:34.620Z,65.90
2019-05-15T02:31:39.166Z,65.90
2019-05-15T02:32:42.299Z,66.00
2019-05-15T02:33:49.222Z,66.20
2019-05-15T02:34:50.964Z,65.80
2019-05-15T02:35:53.914Z,65.60
2019-05-15T02:36:59.869Z,65.80
2019-05-15T02:38:01.619Z,66.20
2019-05-15T02:39:08.918Z,66.10
2019-05-15T02:40:11.197Z,65.80
2019-05-15T02:41:14.119Z,65.30
2019-05-15T02:42:19.165Z,65.50
2019-05-15T02:43:21.606Z,65.80
2019-05-15T02:44:24.692Z,65.60
2019-05-15T02:45:30.154Z,65.50
2019-05-15T02:46:32.258Z,65.40
2019-05-15T02:47:35.178Z,65.50
2019-05-15T02:48:41.021Z,65.70
2019-05-15T02:49:42.800Z,65.60
2019-05-15T02:50:45.688Z,65.50
2019-05-15T02:51:49.338Z,65.30
2019-05-15T02:52:52.430Z,65.30
2019-05-15T02:53:55.353Z,65.30
2019-05-15T02:54:59.923Z,65.10
2019-05-15T02:56:03.034Z,65.10
2019-05-15T02:57:05.969Z,65.10
2019-05-15T02:58:09.900Z,65.10
2019-05-15T02:59:13.421Z,64.80
2019-05-15T03:00:32.671Z,65.10
2019-05-15T03:01:21.196Z,65.00
2019-05-15T03:02:24.253Z,65.00
2019-05-15T03:03:29.459Z,64.90
2019-05-15T03:04:31.922Z,65.20
2019-05-15T03:05:34.816Z,65.60
2019-05-15T03:06:39.029Z,65.80
2019-05-15T03:07:42.252Z,65.40
2019-05-15T03:08:45.192Z,65.00
2019-05-15T03:09:49.620Z,64.80
2019-05-15T03:10:52.922Z,65.00
2019-05-15T03:11:58.464Z,65.40
2019-05-15T03:13:00.560Z,65.10
2019-05-15T03:14:03.486Z,64.80
2019-05-15T03:15:09.747Z,65.00
2019-05-15T03:16:11.494Z,64.80
2019-05-15T03:17:14.398Z,64.70
2019-05-15T03:18:19.387Z,65.00
2019-05-15T03:19:22.139Z,65.00
2019-05-15T03:20:25.154Z,65.20
2019-05-15T03:21:29.509Z,65.70
2019-05-15T03:22:32.614Z,65.70
2019-05-15T03:23:35.571Z,65.50
2019-05-15T03:24:39.659Z,65.60
2019-05-15T03:25:42.801Z,66.60
2019-05-15T03:26:49.437Z,65.90
2019-05-15T03:27:51.776Z,66.00
2019-05-15T03:28:54.673Z,65.70
2019-05-15T03:29:59.366Z,65.80
2019-05-15T03:31:17.959Z,65.90
2019-05-15T03:32:24.070Z,65.70
2019-05-15T03:33:20.723Z,65.40
2019-05-15T03:34:23.168Z,65.30
2019-05-15T03:35:23.361Z,65.20
2019-05-15T03:36:31.397Z,65.20
2019-05-15T03:37:33.243Z,65.20
2019-05-15T03:38:39.094Z,65.10
2019-05-15T03:39:40.799Z,64.70
2019-05-15T03:40:43.750Z,64.80
2019-05-15T03:41:49.555Z,64.70
2019-05-15T03:42:51.388Z,65.00
2019-05-15T03:43:54.315Z,65.30
2019-05-15T03:44:59.623Z,65.20
2019-05-15T03:46:08.760Z,65.20
2019-05-15T03:47:10.487Z,65.20
2019-05-15T03:48:13.757Z,65.20
2019-05-15T03:49:19.691Z,65.30
2019-05-15T03:50:21.538Z,65.40
2019-05-15T03:51:28.754Z,65.50
2019-05-15T03:52:30.264Z,65.70
2019-05-15T03:53:33.170Z,65.70
2019-05-15T03:54:38.957Z,65.60
2019-05-15T03:55:41.032Z,66.30
2019-05-15T03:56:44.029Z,65.60
2019-05-15T03:57:49.820Z,65.80
2019-05-15T03:58:51.666Z,65.90
2019-05-15T03:59:54.948Z,65.40
2019-05-15T04:01:00.339Z,64.80
2019-05-15T04:02:02.664Z,64.90
2019-05-15T04:03:05.613Z,65.00
2019-05-15T04:04:09.575Z,65.10
2019-05-15T04:05:12.882Z,65.30
2019-05-15T04:06:19.041Z,65.20
2019-05-15T04:07:20.933Z,65.00
2019-05-15T04:08:23.987Z,65.00
2019-05-15T04:09:29.487Z,65.00
2019-05-15T04:10:31.603Z,65.00
2019-05-15T04:11:34.613Z,65.00
2019-05-15T04:12:40.479Z,65.00
2019-05-15T04:13:42.468Z,65.00
2019-05-15T04:14:45.361Z,65.00
2019-05-15T04:15:50.146Z,64.80
2019-05-15T04:16:53.071Z,64.90
2019-05-15T04:17:55.974Z,65.10
2019-05-15T04:18:59.428Z,65.00
2019-05-15T04:20:02.558Z,64.90
2019-05-15T04:21:08.865Z,65.10
2019-05-15T04:22:11.485Z,65.00
2019-05-15T04:23:20.946Z,65.00
2019-05-15T04:24:25.459Z,64.80
2019-05-15T04:25:29.750Z,65.00
2019-05-15T04:26:34.505Z,63.70
2019-05-15T04:27:39.026Z,64.00
2019-05-15T04:28:44.191Z,64.10
2019-05-15T04:29:49.237Z,63.80
2019-05-15T04:30:52.195Z,63.90
2019-05-15T04:32:01.083Z,64.10
2019-05-15T04:33:00.203Z,64.30
2019-05-15T04:34:03.215Z,64.30
2019-05-15T04:35:09.214Z,64.30
2019-05-15T04:36:12.158Z,64.10
2019-05-15T04:37:15.051Z,64.40
2019-05-15T04:38:19.598Z,64.60
2019-05-15T04:39:22.610Z,64.70
2019-05-15T04:40:25.524Z,64.60
2019-05-15T04:41:29.870Z,64.50
2019-05-15T04:42:32.997Z,64.40
2019-05-15T04:43:41.486Z,64.10
2019-05-15T04:44:40.822Z,63.90
2019-05-15T04:45:43.642Z,63.80
2019-05-15T04:46:49.544Z,63.70
2019-05-15T04:47:51.327Z,64.10
2019-05-15T04:48:54.255Z,64.10
2019-05-15T04:50:00.024Z,64.10
2019-05-15T04:51:03.016Z,64.10
2019-05-15T04:52:06.024Z,64.00
2019-05-15T04:53:10.706Z,63.90
2019-05-15T04:54:13.771Z,64.00
2019-05-15T04:55:19.471Z,64.20
2019-05-15T04:56:21.386Z,64.30
2019-05-15T04:57:24.307Z,64.80
2019-05-15T04:58:29.727Z,64.70
2019-05-15T04:59:32.069Z,64.40
2019-05-15T05:00:49.199Z,64.30
2019-05-15T05:01:57.058Z,64.00
2019-05-15T05:02:58.763Z,64.40
2019-05-15T05:04:00.393Z,64.70
2019-05-15T05:05:03.618Z,64.70
2019-05-15T05:06:09.444Z,64.80
2019-05-15T05:07:11.639Z,64.80
2019-05-15T05:08:14.735Z,64.20
2019-05-15T05:09:19.879Z,64.10
2019-05-15T05:10:22.657Z,64.30
2019-05-15T05:11:28.768Z,64.50
2019-05-15T05:12:31.525Z,64.40
2019-05-15T05:13:34.450Z,64.50
2019-05-15T05:14:39.142Z,64.60
2019-05-15T05:15:42.159Z,64.90
2019-05-15T05:16:48.335Z,65.50
2019-05-15T05:17:50.140Z,64.20
2019-05-15T05:18:53.328Z,64.20
2019-05-15T05:19:58.246Z,64.20
2019-05-15T05:21:01.001Z,65.20
2019-05-15T05:22:04.009Z,64.70
2019-05-15T05:23:08.548Z,64.90
2019-05-15T05:24:11.553Z,64.90
2019-05-15T05:25:14.502Z,65.00
2019-05-15T05:26:18.556Z,65.00
2019-05-15T05:27:21.556Z,64.70
2019-05-15T05:28:24.469Z,64.70
2019-05-15T05:29:28.037Z,64.50
2019-05-15T05:30:31.018Z,64.50
2019-05-15T05:31:34.072Z,64.50
2019-05-15T05:32:38.923Z,64.80
2019-05-15T05:33:41.714Z,64.70
2019-05-15T05:34:44.613Z,64.70
2019-05-15T05:35:48.579Z,64.60
2019-05-15T05:36:51.878Z,64.40
2019-05-15T05:37:54.801Z,64.30
2019-05-15T05:38:58.425Z,64.20
2019-05-15T05:40:01.847Z,64.10
2019-05-15T05:41:05.028Z,64.30
2019-05-15T05:42:08.010Z,64.60
2019-05-15T05:43:10.931Z,64.80
2019-05-15T05:44:13.853Z,64.80
2019-05-15T05:45:18.165Z,64.70
2019-05-15T05:46:21.138Z,64.70
2019-05-15T05:47:24.077Z,64.80
2019-05-15T05:48:29.118Z,64.80
2019-05-15T05:49:31.842Z,64.50
2019-05-15T05:50:39.660Z,64.50
2019-05-15T05:51:42.687Z,64.60
2019-05-15T05:52:45.655Z,64.40
2019-05-15T05:53:48.625Z,64.30
2019-05-15T05:54:51.541Z,64.40
2019-05-15T05:55:54.532Z,64.50
2019-05-15T05:56:58.604Z,64.50
2019-05-15T05:58:01.737Z,64.60
2019-05-15T05:59:04.638Z,64.60
2019-05-15T06:00:09.222Z,64.30
2019-05-15T06:01:12.645Z,64.10
2019-05-15T06:02:15.559Z,64.30
2019-05-15T06:03:19.561Z,64.40
2019-05-15T06:04:22.873Z,64.40
2019-05-15T06:05:28.009Z,64.40
2019-05-15T06:06:30.604Z,64.10
2019-05-15T06:07:35.420Z,63.60
2019-05-15T06:08:38.975Z,63.50
2019-05-15T06:09:42.089Z,63.20
2019-05-15T06:10:45.119Z,63.20
2019-05-15T06:11:48.834Z,63.30
2019-05-15T06:12:51.802Z,63.30
2019-05-15T06:13:54.805Z,63.10
2019-05-15T06:14:58.113Z,63.00
2019-05-15T06:16:01.090Z,63.00
2019-05-15T06:17:04.065Z,62.80
2019-05-15T06:18:08.448Z,62.70
2019-05-15T06:19:11.471Z,62.40
2019-05-15T06:20:14.521Z,62.70
2019-05-15T06:21:17.892Z,62.70
2019-05-15T06:22:21.100Z,62.90
2019-05-15T06:23:25.945Z,63.10
2019-05-15T06:24:30.571Z,63.20
2019-05-15T06:25:33.872Z,63.30
2019-05-15T06:26:38.583Z,63.50
2019-05-15T06:27:41.634Z,63.60
2019-05-15T06:28:44.462Z,63.70
2019-05-15T06:29:48.473Z,63.90
2019-05-15T06:30:51.526Z,63.90
2019-05-15T06:31:54.481Z,63.80
2019-05-15T06:33:08.132Z,63.80
2019-05-15T06:34:02.338Z,63.60
2019-05-15T06:35:05.401Z,63.10
2019-05-15T06:36:08.986Z,63.10
2019-05-15T06:37:12.197Z,63.00
2019-05-15T06:38:15.111Z,63.30
2019-05-15T06:39:18.079Z,62.40
2019-05-15T06:40:20.993Z,62.80
2019-05-15T06:41:24.290Z,63.10
2019-05-15T06:42:28.302Z,63.10
2019-05-15T06:43:31.369Z,63.30
2019-05-15T06:44:34.350Z,63.40
2019-05-15T06:45:38.025Z,63.60
2019-05-15T06:46:41.030Z,63.70
2019-05-15T06:47:44.031Z,63.60
2019-05-15T06:48:48.607Z,63.30
2019-05-15T06:49:51.745Z,63.00
2019-05-15T06:50:54.767Z,62.90
2019-05-15T06:51:58.693Z,63.00
2019-05-15T06:53:01.645Z,63.00
2019-05-15T06:54:04.565Z,62.80
2019-05-15T06:55:09.110Z,62.60
2019-05-15T06:56:12.552Z,62.80
2019-05-15T06:57:18.212Z,62.70
2019-05-15T06:58:20.551Z,63.30
2019-05-15T06:59:23.615Z,62.50
2019-05-15T07:00:28.327Z,62.30
2019-05-15T07:01:31.353Z,62.00
2019-05-15T07:02:34.325Z,62.00
2019-05-15T07:03:39.379Z,61.90
2019-05-15T07:04:44.846Z,61.90
2019-05-15T07:05:50.328Z,61.80
2019-05-15T07:06:52.638Z,62.00
2019-05-15T07:07:58.374Z,62.20
2019-05-15T07:09:00.330Z,62.10
2019-05-15T07:10:03.750Z,62.10
2019-05-15T07:11:08.724Z,62.20
2019-05-15T07:12:11.752Z,62.20
2019-05-15T07:13:14.721Z,62.50
2019-05-15T07:14:18.069Z,63.10
2019-05-15T07:15:21.355Z,63.80
2019-05-15T07:16:24.345Z,64.00
2019-05-15T07:17:28.740Z,64.40
2019-05-15T07:18:32.126Z,64.90
2019-05-15T07:19:35.074Z,65.50
2019-05-15T07:20:39.074Z,65.60
2019-05-15T07:21:42.362Z,65.20
2019-05-15T07:22:45.346Z,64.70
2019-05-15T07:23:49.586Z,63.90
2019-05-15T07:24:52.732Z,63.90
2019-05-15T07:25:58.555Z,64.10
2019-05-15T07:27:00.402Z,63.70
2019-05-15T07:28:08.604Z,64.20
2019-05-15T07:29:10.911Z,64.30
2019-05-15T07:30:14.361Z,64.50
2019-05-15T07:31:18.071Z,64.80
2019-05-15T07:32:21.177Z,65.40
2019-05-15T07:33:38.861Z,64.80
2019-05-15T07:34:28.883Z,64.50
2019-05-15T07:35:31.918Z,64.70
2019-05-15T07:36:34.889Z,65.20
2019-05-15T07:37:38.699Z,65.60
2019-05-15T07:38:41.938Z,65.50
2019-05-15T07:39:44.905Z,65.60
2019-05-15T07:40:57.189Z,65.80
2019-05-15T07:41:52.678Z,66.10
2019-05-15T07:42:58.367Z,66.40
2019-05-15T07:44:00.475Z,66.80
2019-05-15T07:45:04.171Z,66.60
2019-05-15T07:46:08.458Z,66.60
2019-05-15T07:47:11.626Z,66.10
2019-05-15T07:48:14.680Z,65.10
2019-05-15T07:49:18.234Z,65.40
2019-05-15T07:50:21.803Z,65.00
2019-05-15T07:51:25.753Z,65.00
2019-05-15T07:52:28.991Z,65.20
2019-05-15T07:53:31.956Z,65.10
2019-05-15T07:54:34.921Z,66.00
2019-05-15T07:55:39.275Z,65.30
2019-05-15T07:56:42.443Z,65.10
2019-05-15T07:57:45.499Z,64.80
2019-05-15T07:58:52.418Z,64.50
2019-05-15T07:59:53.317Z,63.90
2019-05-15T08:00:58.967Z,62.90
2019-05-15T08:02:01.987Z,62.60
2019-05-15T08:03:04.939Z,63.00
2019-05-15T08:04:22.701Z,63.50
2019-05-15T08:05:14.053Z,63.70
2019-05-15T08:06:17.989Z,63.70
2019-05-15T08:07:21.005Z,63.40
2019-05-15T08:08:24.058Z,63.50
2019-05-15T08:09:28.545Z,64.00
2019-05-15T08:10:31.390Z,64.10
2019-05-15T08:11:34.359Z,64.00
2019-05-15T08:12:39.260Z,64.30
2019-05-15T08:13:42.411Z,64.30
2019-05-15T08:14:47.555Z,64.80
2019-05-15T08:15:50.186Z,64.10
2019-05-15T08:16:53.167Z,64.30
2019-05-15T08:18:07.705Z,63.90
2019-05-15T08:19:00.972Z,63.70
2019-05-15T08:20:08.930Z,63.80
2019-05-15T08:21:11.052Z,63.90
2019-05-15T08:22:15.199Z,63.80
2019-05-15T08:23:19.368Z,63.50
2019-05-15T08:24:22.550Z,63.20
2019-05-15T08:25:32.141Z,63.10
2019-05-15T08:26:30.342Z,63.30
2019-05-15T08:27:33.288Z,63.10
2019-05-15T08:28:38.259Z,63.10
2019-05-15T08:29:41.020Z,63.10
2019-05-15T08:30:44.050Z,63.20
2019-05-15T08:31:48.219Z,62.90
2019-05-15T08:32:51.874Z,62.80
2019-05-15T08:33:54.864Z,62.90
2019-05-15T08:34:58.657Z,62.80
2019-05-15T08:36:01.957Z,62.60
2019-05-15T08:37:04.924Z,62.60
2019-05-15T08:38:08.833Z,62.60
2019-05-15T08:39:11.867Z,62.60
2019-05-15T08:40:15.238Z,62.90
2019-05-15T08:41:18.671Z,63.10
2019-05-15T08:42:21.649Z,63.20
2019-05-15T08:43:24.665Z,63.20
2019-05-15T08:44:29.310Z,63.10
2019-05-15T08:45:32.412Z,63.00
2019-05-15T08:46:35.418Z,62.90
2019-05-15T08:47:38.720Z,62.90
2019-05-15T08:48:41.642Z,62.90
2019-05-15T08:49:44.666Z,62.70
2019-05-15T08:50:48.710Z,62.50
2019-05-15T08:51:51.998Z,62.20
2019-05-15T08:52:55.163Z,62.20
2019-05-15T08:53:58.162Z,62.40
2019-05-15T08:55:01.054Z,62.30
2019-05-15T08:56:03.989Z,62.70
2019-05-15T08:57:08.501Z,63.20
2019-05-15T08:58:14.093Z,63.30
2019-05-15T08:59:18.594Z,63.10
2019-05-15T09:00:21.261Z,62.90
2019-05-15T09:01:24.243Z,62.70
2019-05-15T09:02:28.727Z,62.70
2019-05-15T09:03:31.961Z,63.10
2019-05-15T09:04:35.346Z,63.20
2019-05-15T09:05:38.942Z,63.30
2019-05-15T09:06:41.971Z,63.40
2019-05-15T09:07:44.898Z,63.50
2019-05-15T09:08:49.051Z,63.70
2019-05-15T09:09:52.147Z,63.60
2019-05-15T09:10:55.061Z,63.60
2019-05-15T09:11:58.481Z,63.50
2019-05-15T09:13:02.435Z,63.10
2019-05-15T09:14:08.045Z,62.90
2019-05-15T09:15:12.335Z,63.10
2019-05-15T09:16:15.246Z,63.30
2019-05-15T09:17:18.293Z,64.60
2019-05-15T09:18:21.210Z,64.10
2019-05-15T09:19:24.120Z,64.70
2019-05-15T09:20:28.727Z,65.50
2019-05-15T09:21:31.752Z,65.80
2019-05-15T09:22:34.780Z,65.80
2019-05-15T09:23:38.849Z,66.20
2019-05-15T09:24:42.050Z,66.20
2019-05-15T09:25:45.035Z,66.30
2019-05-15T09:26:48.758Z,66.70
2019-05-15T09:27:51.945Z,67.40
2019-05-15T09:28:55.082Z,68.00
2019-05-15T09:29:59.189Z,68.30
2019-05-15T09:31:02.173Z,67.90
2019-05-15T09:32:09.339Z,67.90
2019-05-15T09:33:12.812Z,68.50
2019-05-15T09:34:18.349Z,68.70
2019-05-15T09:35:20.970Z,69.20
2019-05-15T09:36:24.142Z,69.40
2019-05-15T09:37:28.724Z,69.30
2019-05-15T09:38:31.780Z,69.20
2019-05-15T09:39:34.753Z,69.90
2019-05-15T09:40:43.324Z,70.70
2019-05-15T09:41:42.465Z,71.20
2019-05-15T09:42:45.403Z,71.50
2019-05-15T09:43:48.652Z,71.70
2019-05-15T09:44:51.689Z,71.70
2019-05-15T09:45:54.594Z,70.90
2019-05-15T09:46:58.425Z,70.30
2019-05-15T09:48:01.655Z,70.00
2019-05-15T09:49:04.596Z,70.20
2019-05-15T09:50:08.473Z,71.10
2019-05-15T09:51:11.497Z,71.60
2019-05-15T09:52:14.475Z,72.30
2019-05-15T09:53:18.923Z,73.10
2019-05-15T09:54:25.474Z,74.70
2019-05-15T09:55:28.532Z,74.20
2019-05-15T09:56:33.072Z,73.40
2019-05-15T09:57:38.396Z,72.70
2019-05-15T09:58:40.715Z,73.00
2019-05-15T09:59:43.680Z,73.30
2019-05-15T10:00:51.424Z,73.10
2019-05-15T10:01:52.455Z,73.00
2019-05-15T10:02:55.400Z,73.00
2019-05-15T10:03:58.389Z,73.10
2019-05-15T10:05:06.566Z,72.70
2019-05-15T10:06:08.108Z,72.40
2019-05-15T10:07:11.199Z,72.40
2019-05-15T10:08:14.222Z,72.70
2019-05-15T10:09:18.868Z,73.20
2019-05-15T10:10:22.009Z,73.70
2019-05-15T10:11:25.066Z,73.70
2019-05-15T10:12:34.560Z,74.10
2019-05-15T10:13:33.338Z,74.70
2019-05-15T10:14:38.449Z,74.80
2019-05-15T10:15:42.108Z,74.60
2019-05-15T10:16:45.061Z,74.20
2019-05-15T10:17:50.934Z,73.40
2019-05-15T10:18:52.737Z,73.30
2019-05-15T10:19:58.108Z,73.90
2019-05-15T10:21:00.545Z,74.50
2019-05-15T10:22:03.497Z,74.40
2019-05-15T10:23:08.775Z,74.90
2019-05-15T10:24:11.463Z,75.60
2019-05-15T10:25:14.587Z,75.90
2019-05-15T10:26:19.285Z,75.70
2019-05-15T10:27:22.336Z,76.00
2019-05-15T10:28:25.282Z,76.80
2019-05-15T10:29:28.251Z,77.30
2019-05-15T10:30:31.133Z,77.90
2019-05-15T10:31:34.046Z,78.30
2019-05-15T10:32:39.573Z,78.60
2019-05-15T10:33:41.979Z,78.70
2019-05-15T10:34:44.904Z,78.70
2019-05-15T10:35:48.099Z,78.90
2019-05-15T10:36:51.179Z,78.50
2019-05-15T10:37:54.123Z,78.50
2019-05-15T10:38:59.211Z,78.80
2019-05-15T10:40:01.899Z,79.00
2019-05-15T10:41:11.212Z,78.90
2019-05-15T10:42:10.592Z,79.10
2019-05-15T10:43:13.549Z,79.00
2019-05-15T10:44:18.182Z,78.40
2019-05-15T10:45:21.381Z,77.90
2019-05-15T10:46:24.477Z,78.10
2019-05-15T10:47:28.936Z,78.30
2019-05-15T10:48:32.325Z,79.00
2019-05-15T10:49:35.312Z,80.20
2019-05-15T10:50:38.876Z,80.80
2019-05-15T10:51:41.852Z,82.00
2019-05-15T10:52:44.905Z,83.20
2019-05-15T10:53:48.787Z,84.60
2019-05-15T10:54:51.866Z,84.90
2019-05-15T10:55:54.813Z,85.10
2019-05-15T10:57:00.463Z,85.40
2019-05-15T10:58:02.583Z,85.50
2019-05-15T10:59:08.329Z,85.50
2019-05-15T11:00:11.074Z,85.70
2019-05-15T11:01:14.030Z,85.40
2019-05-15T11:02:19.048Z,85.00
2019-05-15T11:03:21.590Z,84.40
2019-05-15T11:04:24.549Z,84.50
2019-05-15T11:05:40.501Z,85.50
2019-05-15T11:06:32.107Z,85.20
2019-05-15T11:07:34.954Z,85.30
2019-05-15T11:08:40.487Z,84.60
2019-05-15T11:09:42.606Z,84.00
2019-05-15T11:10:45.567Z,84.50
2019-05-15T11:11:51.520Z,84.50
2019-05-15T11:12:53.085Z,84.40
2019-05-15T11:14:00.200Z,84.10
2019-05-15T11:15:00.777Z,83.50
2019-05-15T11:16:03.702Z,83.20
2019-05-15T11:17:06.621Z,83.10
2019-05-15T11:18:09.541Z,82.70
2019-05-15T11:19:12.488Z,83.20
2019-05-15T11:20:15.525Z,82.90
2019-05-15T11:21:19.038Z,83.50
2019-05-15T11:22:22.009Z,83.00
2019-05-15T11:23:24.920Z,82.80
2019-05-15T11:24:28.261Z,82.20
2019-05-15T11:25:32.795Z,82.40
2019-05-15T11:26:35.705Z,82.60
2019-05-15T11:27:39.222Z,82.60
2019-05-15T11:28:42.262Z,82.20
2019-05-15T11:29:45.162Z,82.20
2019-05-15T11:30:49.207Z,82.20
2019-05-15T11:31:57.892Z,81.60
2019-05-15T11:33:00.146Z,81.00
2019-05-15T11:34:03.073Z,81.00
2019-05-15T11:35:08.088Z,80.70
2019-05-15T11:36:11.026Z,80.40
2019-05-15T11:37:13.955Z,81.30
2019-05-15T11:38:19.241Z,81.00
2019-05-15T11:39:21.670Z,81.00
2019-05-15T11:40:24.675Z,80.70
2019-05-15T11:41:29.498Z,80.40
2019-05-15T11:42:33.516Z,80.60
2019-05-15T11:43:38.531Z,80.70
2019-05-15T11:44:41.250Z,80.90
2019-05-15T11:45:44.232Z,80.90
2019-05-15T11:46:49.376Z,80.50
2019-05-15T11:47:51.961Z,81.20
2019-05-15T11:48:55.018Z,80.80
2019-05-15T11:49:58.628Z,81.10
2019-05-15T11:51:01.647Z,81.20
2019-05-15T11:52:05.628Z,81.20
2019-05-15T11:53:08.978Z,80.00
2019-05-15T11:54:11.864Z,79.80
2019-05-15T11:55:14.978Z,79.50
2019-05-15T11:56:18.847Z,78.60
2019-05-15T11:57:35.878Z,78.70
2019-05-15T11:58:28.186Z,78.90
2019-05-15T11:59:31.274Z,79.40
2019-05-15T12:00:34.259Z,78.30
2019-05-15T12:01:38.317Z,77.60
2019-05-15T12:02:41.430Z,77.50
2019-05-15T12:03:44.408Z,77.20
2019-05-15T12:04:47.256Z,77.50
2019-05-15T12:05:50.202Z,77.60
2019-05-15T12:07:01.545Z,77.60
2019-05-15T12:07:58.010Z,77.20
2019-05-15T12:09:00.893Z,77.50
2019-05-15T12:10:04.315Z,78.30
2019-05-15T12:11:11.911Z,78.80
2019-05-15T12:12:11.975Z,78.70
2019-05-15T12:13:15.027Z,79.30
2019-05-15T12:14:19.416Z,78.20
2019-05-15T12:15:23.040Z,78.20
2019-05-15T12:16:28.800Z,77.20
2019-05-15T12:17:32.491Z,76.40
2019-05-15T12:18:35.581Z,76.00
2019-05-15T12:19:39.119Z,76.70
2019-05-15T12:20:42.137Z,76.90
2019-05-15T12:21:45.141Z,77.50
2019-05-15T12:22:48.694Z,77.60
2019-05-15T12:23:52.798Z,77.50
2019-05-15T12:25:00.553Z,77.50
2019-05-15T12:26:04.220Z,77.40
2019-05-15T12:27:15.331Z,76.40
2019-05-15T12:28:12.154Z,76.20
2019-05-15T12:29:18.163Z,76.10
2019-05-15T12:30:21.875Z,75.80
2019-05-15T12:31:24.915Z,76.20
2019-05-15T12:32:33.320Z,76.90
2019-05-15T12:33:32.921Z,77.60
2019-05-15T12:34:38.861Z,77.60
2019-05-15T12:35:41.032Z,77.50
2019-05-15T12:36:56.140Z,77.20
2019-05-15T12:37:49.245Z,76.70
2019-05-15T12:38:52.407Z,76.80
2019-05-15T12:59:44.760Z,74.40
2019-05-15T13:00:48.983Z,74.80
2019-05-15T13:01:53.010Z,75.40
2019-05-15T13:02:59.185Z,76.30
2019-05-15T13:04:01.727Z,77.20
2019-05-15T13:05:08.222Z,77.30
2019-05-15T13:06:10.877Z,77.30
2019-05-15T13:07:16.858Z,77.50
2019-05-15T13:08:19.438Z,77.50
2019-05-15T13:09:22.490Z,77.60
2019-05-15T13:10:28.777Z,77.70
2019-05-15T13:11:31.833Z,77.60
2019-05-15T13:12:34.835Z,77.10
2019-05-15T13:13:37.753Z,77.40
2019-05-15T13:14:40.739Z,76.60
2019-05-15T13:15:43.685Z,76.10
2019-05-15T13:16:48.066Z,75.30
2019-05-15T13:17:52.972Z,75.20
2019-05-15T13:18:55.879Z,75.50
2019-05-15T13:19:59.716Z,76.10
2019-05-15T13:21:02.691Z,76.90
2019-05-15T13:22:17.334Z,76.80
2019-05-15T13:23:11.553Z,76.40
2019-05-15T13:24:14.532Z,76.60
2019-05-15T13:25:18.859Z,76.80
2019-05-15T13:26:26.206Z,77.20
2019-05-15T13:27:26.598Z,77.20
2019-05-15T13:28:29.640Z,76.80
2019-05-15T13:29:32.625Z,76.60
2019-05-15T13:30:38.509Z,76.00
2019-05-15T13:31:40.489Z,75.70
2019-05-15T13:32:43.427Z,75.80
2019-05-15T13:33:48.110Z,75.90
2019-05-15T13:34:51.236Z,76.20
2019-05-15T13:35:54.198Z,76.20
2019-05-15T13:36:59.206Z,76.30
2019-05-15T13:38:02.008Z,76.30
2019-05-15T13:39:05.715Z,76.30
2019-05-15T13:40:09.037Z,76.80
2019-05-15T13:41:12.745Z,76.90
2019-05-15T13:42:17.998Z,76.90
2019-05-15T13:43:20.844Z,77.00
2019-05-15T13:44:23.836Z,75.90
2019-05-15T13:45:28.798Z,75.50
2019-05-15T13:46:32.964Z,75.60
2019-05-15T13:47:36.069Z,75.90
2019-05-15T13:48:39.024Z,75.90
2019-05-15T13:49:42.370Z,75.90
2019-05-15T13:50:48.233Z,76.00
2019-05-15T13:51:51.116Z,75.90
2019-05-15T13:52:54.053Z,75.60
2019-05-15T13:53:57.047Z,75.80
2019-05-15T13:55:00.082Z,76.00
2019-05-15T13:56:04.169Z,76.30
2019-05-15T13:57:08.803Z,75.90
2019-05-15T13:58:11.949Z,75.20
2019-05-15T13:59:14.975Z,74.60